| Date | Time | Temp. (oF) | Dew Point (oF) | Rel. Hum. (%) | Press. (in.) | Wind Dir. | Wind Speed (mph) | Hourly Rainfall (in.) |
|
|---|---|---|---|---|---|---|---|---|---|
| 1 | 03/28 | 00:00 | 39 | 39 | 100 | 30.00 | ENE | 5 | 0.00 |
| 2 | miss | miss | miss | miss | miss | miss | miss | miss | |
| 3 | 03/27 | 23:09 | 40 | 40 | 100 | 30.01 | ENE | 8 | 0.00 |
| 4 | miss | miss | miss | miss | miss | miss | miss | miss | |
| 5 | 03/27 | 23:07 | 40 | 40 | 100 | 30.01 | E | 7 | 0.00 |
| 6 | miss | miss | miss | miss | miss | miss | miss | miss | |
| 7 | 03/27 | 23:05 | 40 | 40 | 100 | 30.01 | ENE | 7 | 0.00 |
| 8 | miss | miss | miss | miss | miss | miss | miss | miss | |
| 9 | 03/27 | 23:03 | 40 | 40 | 100 | 30.00 | E | 10 | 0.00 |
| 10 | miss | miss | miss | miss | miss | miss | miss | miss | |
| 11 | 03/27 | 23:01 | 40 | 40 | 100 | 30.00 | E | 7 | 0.00 |
| 12 | miss | miss | miss | miss | miss | miss | miss | miss | |
| 13 | 03/27 | 22:59 | 40 | 40 | 100 | 30.00 | NE | 6 | 0.02 |
| 14 | 03/27 | 22:58 | 40 | 40 | 100 | 30.00 | NE | 5 | 0.02 |
| 15 | 03/27 | 22:57 | 40 | 40 | 100 | 30.00 | NE | 6 | 0.02 |
| 16 | 03/27 | 22:56 | 40 | 40 | 100 | 30.00 | NE | 4 | 0.02 |
| 17 | 03/27 | 22:55 | 40 | 40 | 100 | 30.00 | ENE | 4 | 0.02 |
| 18 | miss | miss | miss | miss | miss | miss | miss | miss | |
| 19 | 03/27 | 22:53 | 40 | 40 | 100 | 30.00 | E | 11 | 0.02 |
| 20 | miss | miss | miss | miss | miss | miss | miss | miss | |
| 21 | 03/27 | 22:51 | 40 | 40 | 100 | 30.00 | ENE | 10 | 0.02 |
| 22 | miss | miss | miss | miss | miss | miss | miss | miss | |
| 23 | 03/27 | 22:49 | 40 | 40 | 100 | 30.00 | E | 6 | 0.02 |
| 24 | miss | miss | miss | miss | miss | miss | miss | miss | |
| 25 | 03/27 | 22:47 | 40 | 40 | 100 | 30.00 | E | 10 | 0.02 |
| 26 | miss | miss | miss | miss | miss | miss | miss | miss | |
| 27 | 03/27 | 22:00 | 41 | 41 | 100 | 30.03 | ENE | 4 | 0.00 |
| 28 | miss | miss | miss | miss | miss | miss | miss | miss | |
| 29 | 03/27 | 21:30 | 41 | 41 | 100 | 30.04 | ENE | 4 | 0.02 |
| 30 | miss | miss | miss | miss | miss | miss | miss | miss | |
| 31 | 03/27 | 21:28 | 41 | 41 | 100 | 30.04 | E | 7 | 0.02 |
| 32 | miss | miss | miss | miss | miss | miss | miss | miss | |
| 33 | 03/27 | 21:26 | 41 | 41 | 100 | 30.04 | E | 6 | 0.02 |
| 34 | miss | miss | miss | miss | miss | miss | miss | miss | |
| 35 | 03/27 | 21:24 | 41 | 41 | 100 | 30.04 | E | 7 | 0.02 |
| 36 | miss | miss | miss | miss | miss | miss | miss | miss | |
| 37 | 03/27 | 21:22 | 41 | 41 | 100 | 30.05 | E | 7 | 0.02 |
| 38 | miss | miss | miss | miss | miss | miss | miss | miss | |
| 39 | 03/27 | 21:20 | 41 | 41 | 100 | 30.05 | ENE | 4 | 0.02 |
| 40 | miss | miss | miss | miss | miss | miss | miss | miss | |
| 41 | 03/27 | 21:18 | 42 | 41 | 100 | 30.05 | ENE | 5 | 0.02 |
| 42 | miss | miss | miss | miss | miss | miss | miss | miss | |
| 43 | 03/27 | 21:16 | 42 | 41 | 100 | 30.05 | ENE | 8 | 0.02 |
| 44 | miss | miss | miss | miss | miss | miss | miss | miss | |
| 45 | 03/27 | 21:14 | 42 | 41 | 100 | 30.05 | NE | 8 | 0.01 |
| 46 | miss | miss | miss | miss | miss | miss | miss | miss | |
| 47 | 03/27 | 21:12 | 42 | 41 | 100 | 30.05 | NE | 10 | 0.01 |
| 48 | miss | miss | miss | miss | miss | miss | miss | miss | |
| 49 | 03/27 | 21:10 | 42 | 41 | 100 | 30.04 | NE | 5 | 0.01 |
| 50 | miss | miss | miss | miss | miss | miss | miss | miss | |
| 51 | 03/27 | 21:10 | 42 | 41 | 100 | 30.04 | NE | 5 | 0.01 |
| 52 | 03/27 | 21:00 | 43 | 42 | 100 | 30.05 | E | 6 | 0.03 |
| 53 | 03/27 | 20:00 | 43 | 42 | 100 | 30.07 | NE | 2 | 0.08 |
| 54 | 03/27 | 19:00 | 44 | 43 | 99 | 30.08 | E | 5 | 0.03 |
| 55 | 03/27 | 18:00 | 44 | 43 | 98 | 30.09 | NE | 2 | 0.00 |
| 56 | 03/27 | 17:00 | 44 | 43 | 98 | 30.08 | SE | 5 | 0.01 |
| 57 | 03/27 | 16:00 | 45 | 43 | 95 | 30.10 | SE | 4 | 0.02 |
| 58 | 03/27 | 15:00 | 47 | 42 | 84 | 30.12 | E | 5 | 0.00 |
| 59 | 03/27 | 14:00 | 47 | 41 | 81 | 30.14 | SSW | 6 | 0.00 |
| 60 | 03/27 | 13:00 | 47 | 41 | 80 | 30.16 | S | 6 | 0.00 |
| 61 | 03/27 | 12:00 | 46 | 40 | 82 | 30.17 | NE | 2 | 0.00 |
| 62 | 03/27 | 11:00 | 44 | 39 | 84 | 30.18 | S | 4 | 0.00 |
| 63 | 03/27 | 10:00 | 43 | 39 | 89 | 30.19 | SSE | 3 | 0.00 |
| 64 | 03/27 | 09:00 | 41 | 38 | 92 | 30.17 | SSW | 1 | 0.00 |
| 65 | 03/27 | 08:00 | 40 | 38 | 95 | 30.18 | ESE | 6 | 0.00 |
| 66 | 03/27 | 07:00 | 39 | 37 | 94 | 30.19 | E | 2 | 0.00 |
| 67 | 03/27 | 06:00 | 39 | 36 | 92 | 30.17 | ENE | 2 | 0.00 |
| 68 | 03/27 | 05:00 | 40 | 37 | 91 | 30.17 | ENE | 3 | 0.00 |
| 69 | 03/27 | 04:00 | 40 | 37 | 90 | 30.16 | ENE | 5 | 0.00 |
| 70 | 03/27 | 03:00 | 40 | 36 | 88 | 30.17 | SSE | 2 | 0.00 |
| 71 | 03/27 | 02:00 | 40 | 35 | 85 | 30.16 | SSE | 1 | 0.00 |
| 72 | 03/27 | 01:00 | 41 | 34 | 79 | 30.15 | SSE | 1 | 0.00 |
| 73 | 03/27 | 00:00 | 41 | 34 | 78 | 30.18 | S | 4 | -0.22 |
| 74 | 03/26 | 23:00 | 42 | 35 | 77 | 30.17 | SE | 3 | 0.00 |
| 75 | 03/26 | 22:00 | 42 | 33 | 73 | 30.18 | ENE | 1 | 0.00 |
| 76 | 03/26 | 21:00 | 43 | 34 | 73 | 30.18 | SSW | 1 | 0.00 |
| 77 | 03/26 | 20:00 | 44 | 34 | 68 | 30.18 | SSW | 0 | 0.00 |
| 78 | 03/26 | 19:00 | 44 | 31 | 62 | 30.17 | SSW | 1 | 0.00 |
| 79 | 03/26 | 18:00 | 45 | 32 | 62 | 30.16 | ESE | 0 | 0.00 |
| 80 | 03/26 | 17:00 | 45 | 32 | 61 | 30.16 | SSE | 2 | 0.00 |
| 81 | 03/26 | 16:00 | 45 | 31 | 58 | 30.15 | SSE | 1 | 0.00 |
| 82 | 03/26 | 15:00 | 45 | 31 | 60 | 30.16 | ESE | 4 | 0.00 |
| 83 | 03/26 | 14:00 | 45 | 31 | 60 | 30.16 | ESE | 2 | 0.00 |
| 84 | miss | miss | miss | miss | miss | miss | miss | miss | |
| 85 | 03/26 | 13:44 | 45 | 32 | 61 | 30.16 | SE | 2 | 0.00 |
| 86 | miss | miss | miss | miss | miss | miss | miss | miss | |
| 87 | 03/26 | 13:42 | 45 | 31 | 60 | 30.16 | SSE | 4 | 0.00 |
| 88 | miss | miss | miss | miss | miss | miss | miss | miss | |
| 89 | 03/26 | 13:40 | 45 | 32 | 61 | 30.16 | ESE | 1 | 0.00 |
| 90 | miss | miss | miss | miss | miss | miss | miss | miss | |
| 91 | 03/26 | 13:38 | 45 | 31 | 60 | 30.16 | SE | 2 | 0.00 |
| 92 | miss | miss | miss | miss | miss | miss | miss | miss | |
| 93 | 03/26 | 13:36 | 45 | 31 | 60 | 30.16 | ESE | 7 | 0.00 |
| 94 | miss | miss | miss | miss | miss | miss | miss | miss | |
| 95 | 03/26 | 13:34 | 45 | 31 | 60 | 30.16 | ENE | 4 | 0.00 |
| 96 | miss | miss | miss | miss | miss | miss | miss | miss | |
| 97 | 03/26 | 13:32 | 45 | 31 | 60 | 30.16 | ENE | 3 | 0.00 |
| 98 | miss | miss | miss | miss | miss | miss | miss | miss | |
| 99 | 03/26 | 13:32 | 45 | 31 | 60 | 30.16 | ENE | 3 | 0.00 |
| 100 | miss | miss | miss | miss | miss | miss | miss | miss | |
| 101 | 03/26 | 13:32 | 45 | 31 | 60 | 30.16 | ENE | 3 | 0.00 |
| 102 | miss | miss | miss | miss | miss | miss | miss | miss | |
| 103 | 03/26 | 13:32 | 45 | 31 | 60 | 30.16 | ENE | 3 | 0.00 |
| 104 | miss | miss | miss | miss | miss | miss | miss | miss | |
| 105 | 03/26 | 13:32 | 45 | 31 | 60 | 30.16 | ENE | 3 | 0.00 |
| 106 | miss | miss | miss | miss | miss | miss | miss | miss | |
| 107 | 03/26 | 13:32 | 45 | 31 | 60 | 30.16 | ENE | 3 | 0.00 |
| 108 | 03/26 | 13:00 | 45 | 32 | 62 | 30.18 | ESE | 1 | 0.00 |
| 109 | 03/26 | 12:00 | 44 | 31 | 62 | 30.18 | NE | 2 | 0.00 |
| 110 | 03/26 | 11:00 | 45 | 33 | 63 | 30.18 | ENE | 7 | 0.00 |
| 111 | 03/26 | 10:00 | 43 | 32 | 66 | 30.19 | ESE | 4 | 0.00 |
| 112 | 03/26 | 09:00 | 40 | 33 | 77 | 30.17 | ESE | 5 | 0.00 |
| 113 | 03/26 | 08:00 | 38 | 34 | 87 | 30.17 | E | 5 | 0.00 |
| 114 | 03/26 | 07:00 | 35 | 34 | 99 | 30.17 | NE | 4 | 0.00 |
| 115 | 03/26 | 06:00 | 34 | 33 | 100 | 30.14 | NE | 5 | 0.00 |
| 116 | 03/26 | 05:00 | 33 | 32 | 100 | 30.12 | SE | 0 | 0.00 |
| 117 | 03/26 | 04:00 | 32 | 32 | 100 | 30.09 | NE | 0 | 0.00 |
| 118 | 03/26 | 03:00 | 32 | 31 | 99 | 30.09 | N | 0 | 0.00 |
| 119 | 03/26 | 02:00 | 32 | 31 | 98 | 30.09 | N | 0 | 0.00 |
| 120 | 03/26 | 01:00 | 32 | 30 | 96 | 30.09 | WSW | 0 | 0.00 |
| 121 | 03/26 | 00:00 | 33 | 31 | 94 | 30.08 | WSW | 0 | 0.00 |